createdAt,value
2022-10-05T03:02:57.445Z,6.70
2022-10-05T03:06:00.272Z,6.70
2022-10-05T03:08:39.172Z,6.70
2022-10-05T03:11:38.666Z,6.60
2022-10-05T03:14:24.966Z,6.70
2022-10-05T03:17:14.247Z,6.70
2022-10-05T03:19:44.482Z,6.70
2022-10-05T03:22:31.574Z,6.70
2022-10-05T03:25:19.644Z,6.70
2022-10-05T03:28:16.303Z,6.70
2022-10-05T03:31:03.206Z,6.60
2022-10-05T03:33:48.713Z,6.60
2022-10-05T03:36:27.537Z,6.60
2022-10-05T03:39:00.888Z,6.60
2022-10-05T03:41:43.653Z,6.60
2022-10-05T03:44:34.899Z,6.60
2022-10-05T03:47:25.889Z,6.40
2022-10-05T03:49:59.157Z,6.50
2022-10-05T03:52:30.199Z,6.50
2022-10-05T03:55:05.764Z,6.50
2022-10-05T03:57:36.945Z,6.50
2022-10-05T04:00:17.621Z,6.50
2022-10-05T04:03:12.201Z,6.40
2022-10-05T04:05:47.508Z,6.30
2022-10-05T04:08:36.040Z,6.20
2022-10-05T04:11:18.263Z,6.20
2022-10-05T04:13:49.323Z,6.30
2022-10-05T04:16:20.849Z,6.30
2022-10-05T04:18:55.274Z,6.20
2022-10-05T04:21:40.784Z,6.20
2022-10-05T04:24:37.939Z,6.20
2022-10-05T04:27:12.125Z,6.20
2022-10-05T04:29:48.134Z,6.10
2022-10-05T04:32:31.263Z,6.10
2022-10-05T04:35:24.144Z,6.20
2022-10-05T04:38:28.683Z,6.20
2022-10-05T04:41:32.645Z,6.20
2022-10-05T04:44:21.171Z,6.20
2022-10-05T04:47:12.273Z,6.30
2022-10-05T04:49:57.429Z,6.20
2022-10-05T04:52:32.773Z,6.30
2022-10-05T04:55:14.640Z,6.20
2022-10-05T04:58:06.496Z,6.20
2022-10-05T05:00:49.155Z,6.20
2022-10-05T05:03:45.253Z,6.20
2022-10-05T05:06:33.310Z,6.10
2022-10-05T05:09:24.175Z,6.00
2022-10-05T05:12:19.376Z,6.00
2022-10-05T05:14:52.527Z,6.00
2022-10-05T05:17:44.328Z,6.10
2022-10-05T05:20:52.741Z,6.10
2022-10-05T05:23:35.210Z,6.10
2022-10-05T05:26:14.707Z,6.00
2022-10-05T05:28:51.044Z,6.10
2022-10-05T05:31:52.296Z,6.10
2022-10-05T05:34:46.658Z,6.10
2022-10-05T05:37:35.087Z,6.20
2022-10-05T05:40:17.804Z,6.30
2022-10-05T05:43:06.724Z,6.30
2022-10-05T05:45:52.595Z,6.30
2022-10-05T05:48:37.856Z,6.40
2022-10-05T05:51:14.131Z,6.20
2022-10-05T05:53:45.425Z,6.30
2022-10-05T05:56:20.921Z,6.30
2022-10-05T05:59:01.373Z,6.40
2022-10-05T06:01:36.943Z,6.40
2022-10-05T06:04:14.693Z,6.50
2022-10-05T06:06:50.018Z,6.60
2022-10-05T06:09:27.129Z,6.70
2022-10-05T06:12:22.351Z,6.70
2022-10-05T06:14:58.079Z,6.80
2022-10-05T06:17:35.893Z,7.00
2022-10-05T06:20:09.825Z,6.80
2022-10-05T06:22:41.035Z,7.00
2022-10-05T06:25:31.088Z,7.10
2022-10-05T06:28:12.933Z,7.30
2022-10-05T06:31:02.236Z,7.40
2022-10-05T06:33:56.706Z,7.40
2022-10-05T06:36:42.805Z,7.40
2022-10-05T06:39:23.140Z,7.70
2022-10-05T06:42:39.301Z,8.20
2022-10-05T06:45:24.504Z,9.40
2022-10-05T06:48:04.945Z,10.60
2022-10-05T06:50:38.352Z,12.10
2022-10-05T06:53:42.271Z,12.20
2022-10-05T06:56:13.556Z,12.90
2022-10-05T06:58:52.961Z,13.70
2022-10-05T07:01:25.787Z,14.60
2022-10-05T07:04:33.401Z,15.40
2022-10-05T07:07:37.258Z,16.00
2022-10-05T07:10:26.965Z,16.70
2022-10-05T07:13:35.203Z,17.10
2022-10-05T07:16:26.353Z,17.10
2022-10-05T07:19:19.620Z,16.60
2022-10-05T07:21:50.057Z,16.30
2022-10-05T07:24:46.193Z,16.00
2022-10-05T07:27:25.453Z,15.80
2022-10-05T07:30:14.767Z,15.70
2022-10-05T07:33:01.203Z,15.60
2022-10-05T07:36:05.756Z,15.50
2022-10-05T07:38:44.407Z,15.50
2022-10-05T07:41:20.096Z,15.50
2022-10-05T07:44:04.356Z,15.50
2022-10-05T07:46:53.671Z,15.50
2022-10-05T07:49:44.557Z,15.60
2022-10-05T07:52:23.520Z,15.70
2022-10-05T07:55:05.087Z,15.40
2022-10-05T07:57:46.899Z,15.40
2022-10-05T08:00:20.854Z,15.50
2022-10-05T08:03:01.895Z,15.50
2022-10-05T08:05:31.878Z,15.70
2022-10-05T08:08:11.661Z,15.90
2022-10-05T08:10:46.959Z,16.20
2022-10-05T08:13:24.912Z,16.30
2022-10-05T08:15:57.943Z,16.70
2022-10-05T08:18:33.863Z,17.20
2022-10-05T08:21:01.696Z,17.70
2022-10-05T08:23:38.691Z,18.30
2022-10-05T08:26:31.228Z,18.90
2022-10-05T08:29:22.798Z,19.50
2022-10-05T08:31:55.989Z,20.20
2022-10-05T08:34:47.846Z,20.60
2022-10-05T08:37:42.271Z,21.00
2022-10-05T08:40:33.972Z,21.10
2022-10-05T08:43:18.042Z,20.70
2022-10-05T08:46:00.608Z,20.60
2022-10-05T08:48:56.235Z,20.60
2022-10-05T08:51:26.089Z,20.40
2022-10-05T08:54:27.280Z,20.10
2022-10-05T08:57:22.338Z,19.90
2022-10-05T09:00:10.834Z,19.60
2022-10-05T09:03:09.231Z,19.50
2022-10-05T09:05:48.066Z,19.60
2022-10-05T09:08:38.249Z,19.60
2022-10-05T09:11:31.852Z,19.70
2022-10-05T09:14:01.940Z,19.70
2022-10-05T09:16:34.791Z,19.70
2022-10-05T09:19:22.778Z,19.70
2022-10-05T09:22:15.069Z,19.80
2022-10-05T09:24:54.291Z,19.80
2022-10-05T09:27:34.095Z,19.80
2022-10-05T09:30:20.570Z,19.80
2022-10-05T09:32:57.676Z,19.80
2022-10-05T09:35:33.985Z,19.90
2022-10-05T09:38:19.369Z,19.90
2022-10-05T09:41:09.553Z,19.80
2022-10-05T09:43:40.222Z,19.80
2022-10-05T09:46:13.820Z,19.80
2022-10-05T09:49:35.591Z,19.90
2022-10-05T09:52:34.727Z,20.00
2022-10-05T09:55:24.690Z,19.80
2022-10-05T09:57:57.481Z,19.90
2022-10-05T10:00:40.092Z,19.80
2022-10-05T10:03:22.135Z,19.90
2022-10-05T10:06:20.972Z,20.10
2022-10-05T10:09:17.043Z,20.20
2022-10-05T10:12:51.627Z,20.30
2022-10-05T10:15:38.473Z,20.40
2022-10-05T10:18:28.581Z,20.40
2022-10-05T10:21:10.882Z,20.30
2022-10-05T10:23:46.967Z,20.30
2022-10-05T10:26:36.990Z,20.40
2022-10-05T10:29:12.898Z,20.40
2022-10-05T10:31:49.254Z,20.50
2022-10-05T10:34:48.102Z,20.60
2022-10-05T10:37:32.469Z,20.60
2022-10-05T10:40:21.326Z,20.70
2022-10-05T10:43:26.533Z,20.60
2022-10-05T10:46:14.032Z,20.60
2022-10-05T10:49:20.524Z,20.70
2022-10-05T10:52:19.730Z,20.60
2022-10-05T10:54:55.573Z,20.60
2022-10-05T10:57:32.658Z,20.70
2022-10-05T11:00:02.597Z,20.80
2022-10-05T11:02:48.113Z,20.90
2022-10-05T11:05:38.082Z,20.90
2022-10-05T11:08:22.982Z,21.00
2022-10-05T11:11:07.429Z,21.00
2022-10-05T11:14:02.861Z,21.00
2022-10-05T11:16:44.815Z,21.10
2022-10-05T11:19:21.715Z,21.10
2022-10-05T11:22:05.407Z,21.30
2022-10-05T11:25:01.455Z,21.40
2022-10-05T11:27:53.429Z,21.40
2022-10-05T11:30:50.332Z,21.30
2022-10-05T11:33:59.110Z,21.30
2022-10-05T11:36:53.842Z,21.50
2022-10-05T11:39:33.496Z,21.50
2022-10-05T11:42:26.837Z,21.60
2022-10-05T11:45:25.125Z,21.60
2022-10-05T11:47:58.235Z,21.60
2022-10-05T11:50:42.603Z,21.70
2022-10-05T11:53:42.591Z,21.80
2022-10-05T11:59:34.672Z,21.70
2022-10-05T12:02:33.467Z,21.70
2022-10-05T12:05:11.184Z,21.80
2022-10-05T12:07:59.564Z,21.90
2022-10-05T12:10:44.664Z,22.00
2022-10-05T12:13:35.826Z,22.00
2022-10-05T12:16:10.348Z,22.00
2022-10-05T12:19:04.826Z,22.00
2022-10-05T12:22:04.051Z,22.00
2022-10-05T12:24:37.111Z,22.10
2022-10-05T12:27:25.710Z,22.10
2022-10-05T12:30:06.589Z,22.00
2022-10-05T12:32:47.505Z,22.00
2022-10-05T12:35:48.301Z,22.10
2022-10-05T12:38:22.965Z,22.30
2022-10-05T12:40:56.891Z,22.20
2022-10-05T12:43:47.263Z,22.10
2022-10-05T12:46:29.099Z,22.10
2022-10-05T12:49:02.137Z,22.10
2022-10-05T12:51:39.846Z,22.20
2022-10-05T12:54:10.009Z,22.20
2022-10-05T12:57:15.068Z,22.20
2022-10-05T12:59:57.279Z,22.30
2022-10-05T13:02:43.137Z,22.30
2022-10-05T13:05:10.227Z,22.40
2022-10-05T13:07:50.988Z,22.40
2022-10-05T13:10:36.188Z,22.30
2022-10-05T13:13:14.666Z,22.10
2022-10-05T13:15:44.538Z,22.10
2022-10-05T13:18:30.390Z,22.20
2022-10-05T13:21:16.703Z,22.20
2022-10-05T13:23:46.596Z,22.20
2022-10-05T13:26:24.605Z,22.20
2022-10-05T13:29:01.496Z,22.10
2022-10-05T13:31:57.709Z,22.20
2022-10-05T13:34:33.205Z,22.20
2022-10-05T13:37:20.416Z,22.30
2022-10-05T13:39:50.344Z,22.40
2022-10-05T13:42:30.886Z,22.40
2022-10-05T13:45:03.150Z,22.30
2022-10-05T13:47:48.636Z,22.40
2022-10-05T13:50:17.498Z,22.40
2022-10-05T13:52:59.817Z,22.40
2022-10-05T13:55:47.105Z,22.50
2022-10-05T13:58:23.148Z,22.40
2022-10-05T14:00:55.287Z,22.40
2022-10-05T14:03:32.710Z,22.40
2022-10-05T14:06:02.015Z,22.40
2022-10-05T14:08:34.679Z,22.50
2022-10-05T14:11:26.506Z,22.60
2022-10-05T14:14:03.606Z,22.70
2022-10-05T14:16:33.400Z,22.70
2022-10-05T14:19:06.479Z,22.70
2022-10-05T14:21:54.435Z,22.70
2022-10-05T14:24:50.217Z,22.80
2022-10-05T14:27:22.521Z,22.60
2022-10-05T14:30:12.705Z,22.60
2022-10-05T14:33:00.492Z,22.60
2022-10-05T14:35:50.751Z,22.60
2022-10-05T14:38:29.891Z,22.70
2022-10-05T14:41:17.295Z,22.70
2022-10-05T14:43:57.096Z,22.60
2022-10-05T14:46:29.047Z,22.50
2022-10-05T14:49:37.257Z,22.50
2022-10-05T14:52:29.077Z,22.50
2022-10-05T14:55:02.157Z,22.40
2022-10-05T14:57:48.263Z,22.30
2022-10-05T15:00:17.636Z,22.30
2022-10-05T15:03:04.543Z,22.20
2022-10-05T15:05:51.980Z,22.20
2022-10-05T15:08:42.055Z,22.10
2022-10-05T15:11:48.556Z,22.10
2022-10-05T15:14:25.221Z,22.00
2022-10-05T15:16:57.523Z,21.80
2022-10-05T15:19:32.544Z,21.70
2022-10-05T15:22:02.646Z,21.60
2022-10-05T15:24:49.661Z,21.50
2022-10-05T15:27:39.762Z,21.40
2022-10-05T15:30:18.100Z,21.40
2022-10-05T15:32:57.335Z,21.30
2022-10-05T15:35:36.019Z,21.30
2022-10-05T15:38:20.950Z,21.10
2022-10-05T15:41:09.938Z,21.00
2022-10-05T15:43:39.785Z,20.90
2022-10-05T15:46:17.001Z,20.80
2022-10-05T15:48:58.436Z,20.70
2022-10-05T15:51:40.822Z,20.60
2022-10-05T15:54:42.532Z,20.40
2022-10-05T15:57:25.462Z,20.40
2022-10-05T15:59:58.273Z,20.30
2022-10-05T16:03:05.228Z,20.20
2022-10-05T16:05:56.794Z,20.10
2022-10-05T16:08:51.014Z,19.90
2022-10-05T16:11:31.922Z,19.70
2022-10-05T16:14:18.212Z,19.60
2022-10-05T16:17:01.105Z,19.50
2022-10-05T16:19:37.151Z,19.30
2022-10-05T16:22:21.700Z,19.20
2022-10-05T16:25:33.268Z,19.10
2022-10-05T16:28:17.574Z,19.00
2022-10-05T16:31:18.058Z,18.80
2022-10-05T16:33:54.367Z,18.80
2022-10-05T16:36:31.818Z,18.60
2022-10-05T16:39:33.411Z,18.50
2022-10-05T16:42:12.882Z,18.40
2022-10-05T16:44:45.665Z,18.20
2022-10-05T16:47:41.337Z,18.20
2022-10-05T16:50:23.500Z,18.10
2022-10-05T16:53:03.185Z,18.10
2022-10-05T16:55:37.567Z,17.90
2022-10-05T16:58:16.739Z,17.80
2022-10-05T17:01:21.168Z,17.70
2022-10-05T17:04:20.817Z,17.70
2022-10-05T17:07:39.316Z,17.60
2022-10-05T17:10:27.840Z,17.40
2022-10-05T17:13:05.066Z,17.30
2022-10-05T17:15:34.197Z,17.20
2022-10-05T17:18:40.598Z,17.10
2022-10-05T17:21:41.275Z,16.90
2022-10-05T17:24:41.068Z,16.60
2022-10-05T17:27:26.870Z,16.40
2022-10-05T17:29:55.422Z,16.20
2022-10-05T17:32:22.489Z,16.00
2022-10-05T17:35:18.247Z,16.00
2022-10-05T17:38:14.141Z,15.80
2022-10-05T17:41:03.061Z,15.70
2022-10-05T17:43:31.803Z,15.70
2022-10-05T17:46:09.944Z,15.60
2022-10-05T17:49:19.128Z,15.40
2022-10-05T17:52:05.040Z,15.30
2022-10-05T17:55:14.089Z,15.20
2022-10-05T17:57:41.914Z,15.10
2022-10-05T18:00:32.301Z,15.10
2022-10-05T18:03:00.069Z,15.00
2022-10-05T18:05:28.361Z,14.60
2022-10-05T18:08:15.630Z,14.50
2022-10-05T18:11:21.585Z,14.20
2022-10-05T18:13:50.139Z,14.20
2022-10-05T18:16:55.993Z,14.20
2022-10-05T18:19:23.911Z,14.00
2022-10-05T18:22:27.667Z,14.00
2022-10-05T18:25:06.934Z,14.00
2022-10-05T18:27:39.652Z,13.90
2022-10-05T18:30:23.162Z,13.90
2022-10-05T18:33:23.273Z,13.90
2022-10-05T18:36:08.338Z,13.90
2022-10-05T18:38:52.948Z,13.80
2022-10-05T18:41:45.372Z,13.80
2022-10-05T18:44:26.269Z,13.80
2022-10-05T18:47:18.262Z,13.90
2022-10-05T18:50:07.711Z,13.80
2022-10-05T18:52:46.564Z,13.90
2022-10-05T18:55:19.265Z,13.70
2022-10-05T18:57:54.976Z,13.40
2022-10-05T19:00:31.670Z,13.00
2022-10-05T19:03:36.379Z,12.90
2022-10-05T19:06:29.802Z,12.70
2022-10-05T19:09:23.647Z,12.60
2022-10-05T19:12:18.118Z,12.40
2022-10-05T19:14:45.343Z,12.40
2022-10-05T19:17:28.300Z,12.40
2022-10-05T19:20:12.944Z,12.40
2022-10-05T19:23:02.191Z,12.50
2022-10-05T19:25:49.638Z,12.60
2022-10-05T19:28:58.888Z,12.50
2022-10-05T19:31:34.374Z,12.50
2022-10-05T19:34:24.377Z,12.50
2022-10-05T19:37:14.636Z,12.50
2022-10-05T19:40:04.515Z,12.50
2022-10-05T19:42:49.636Z,12.50
2022-10-05T19:45:30.258Z,12.40
2022-10-05T19:48:23.246Z,12.40
2022-10-05T19:50:59.185Z,12.40
2022-10-05T19:53:43.098Z,12.30
2022-10-05T19:56:28.668Z,12.20
2022-10-05T19:59:00.945Z,12.00
2022-10-05T20:01:36.831Z,12.00
2022-10-05T20:04:05.240Z,11.90
2022-10-05T20:06:32.945Z,12.00
2022-10-05T20:09:17.829Z,12.00
2022-10-05T20:11:52.491Z,12.00
2022-10-05T20:14:59.826Z,11.90
2022-10-05T20:17:48.675Z,11.90
2022-10-05T20:20:29.517Z,12.00
2022-10-05T20:23:30.391Z,11.90
2022-10-05T20:26:16.320Z,11.80
2022-10-05T20:28:44.417Z,11.70
2022-10-05T20:31:12.453Z,11.70
2022-10-05T20:33:40.179Z,11.70
2022-10-05T20:36:08.627Z,11.70
2022-10-05T20:38:40.842Z,11.60
2022-10-05T20:41:08.750Z,11.60
2022-10-05T20:43:38.903Z,11.60
2022-10-05T20:46:07.560Z,11.60
2022-10-05T20:48:36.003Z,11.60
2022-10-05T20:51:03.272Z,11.60
2022-10-05T20:53:30.370Z,11.60
2022-10-05T20:55:59.718Z,11.60
2022-10-05T20:58:27.206Z,11.60
